Time;durP1;ratioP1;P1;durP2;ratioP2;P2;SDS_P1;SDS_P2;PMS_P1;PMS_P2;Temp;Humidity;BMP_temperature;BMP_pressure;BME280_temperature;BME280_humidity;BME280_pressure;Samples;Min_cycle;Max_cycle;Signal;HPM_P1;HPM_P2
2021/01/29 00:00:35;;;;;;;12.43;6.68;;;1.90;99.90;;;;;;5093059;28;20032;-77
2021/01/29 00:03:05;;;;;;;9.07;5.57;;;1.80;99.90;;;;;;5075119;28;20050;-78
2021/01/29 00:05:44;;;;;;;11.63;6.05;;;1.70;99.90;;;;;;5093016;28;20036;-77
2021/01/29 00:08:11;;;;;;;10.93;4.20;;;1.70;99.90;;;;;;5074614;28;20560;-78
2021/01/29 00:10:37;;;;;;;8.07;4.43;;;1.70;99.90;;;;;;5092653;28;20032;-77
2021/01/29 00:13:04;;;;;;;8.18;5.05;;;1.60;99.90;;;;;;5093429;28;20146;-77
2021/01/29 00:15:30;;;;;;;6.90;4.60;;;1.60;99.90;;;;;;5075112;28;20028;-78
2021/01/29 00:17:57;;;;;;;9.07;5.20;;;1.50;99.90;;;;;;5092724;28;20021;-77
2021/01/29 00:20:25;;;;;;;9.25;4.70;;;1.40;99.90;;;;;;5092980;28;20028;-77
2021/01/29 00:22:51;;;;;;;10.05;5.43;;;1.40;99.90;;;;;;5092952;28;20052;-77
2021/01/29 00:25:21;;;;;;;7.32;4.20;;;1.30;99.90;;;;;;5092807;28;20082;-78
2021/01/29 00:27:48;;;;;;;8.82;4.32;;;1.30;99.90;;;;;;5092867;28;20028;-77
2021/01/29 00:30:16;;;;;;;6.80;4.18;;;1.20;99.90;;;;;;5074648;28;20054;-77
2021/01/29 00:32:42;;;;;;;7.60;4.32;;;1.20;99.90;;;;;;5092578;28;20038;-74
2021/01/29 00:35:09;;;;;;;9.30;4.60;;;1.20;99.90;;;;;;5092763;28;20020;-77
2021/01/29 00:37:34;;;;;;;8.38;4.97;;;1.20;99.90;;;;;;5074560;28;20062;-77
2021/01/29 00:40:00;;;;;;;8.68;4.53;;;1.10;99.90;;;;;;5074061;28;20051;-78
2021/01/29 00:42:26;;;;;;;9.02;5.20;;;1.00;99.90;;;;;;5074636;28;20055;-77
2021/01/29 00:44:52;;;;;;;8.98;5.15;;;0.90;99.90;;;;;;5092669;28;20028;-78
2021/01/29 00:47:17;;;;;;;8.20;5.15;;;0.90;99.90;;;;;;5077375;28;20047;-77
2021/01/29 00:49:43;;;;;;;9.25;5.50;;;0.80;99.90;;;;;;5078512;28;20035;-77
2021/01/29 00:52:09;;;;;;;10.85;4.68;;;0.80;99.90;;;;;;5077744;28;20119;-76
2021/01/29 00:54:34;;;;;;;7.25;4.53;;;0.80;99.90;;;;;;5096356;28;20024;-77
2021/01/29 00:57:00;;;;;;;6.50;4.45;;;0.70;99.90;;;;;;5096197;28;20024;-76
2021/01/29 00:59:26;;;;;;;6.55;4.10;;;0.60;99.90;;;;;;5096500;28;20046;-78
2021/01/29 01:01:51;;;;;;;6.68;4.43;;;0.60;99.90;;;;;;5096323;28;20028;-77
2021/01/29 01:04:17;;;;;;;7.15;4.50;;;0.50;99.90;;;;;;5077950;28;20024;-77
2021/01/29 01:06:43;;;;;;;7.53;4.30;;;0.50;99.90;;;;;;5095963;28;20036;-75
2021/01/29 01:09:09;;;;;;;7.03;4.20;;;0.50;99.90;;;;;;5095807;28;20169;-76
2021/01/29 01:11:35;;;;;;;5.72;3.67;;;0.40;99.90;;;;;;5096337;28;20048;-77
2021/01/29 01:14:00;;;;;;;7.53;4.45;;;0.40;99.90;;;;;;5095777;28;20103;-76
2021/01/29 01:16:27;;;;;;;8.82;4.40;;;0.40;99.90;;;;;;5096022;28;20099;-77
2021/01/29 01:18:54;;;;;;;8.00;4.88;;;0.30;99.90;;;;;;5095943;28;20055;-77
2021/01/29 01:21:20;;;;;;;7.22;4.85;;;0.30;99.90;;;;;;5077579;28;20097;-76
2021/01/29 01:23:45;;;;;;;8.50;4.82;;;0.30;99.90;;;;;;5095740;28;20028;-77
2021/01/29 01:26:11;;;;;;;7.32;4.20;;;0.30;99.90;;;;;;5095358;28;20081;-77
2021/01/29 01:28:37;;;;;;;10.23;5.25;;;0.30;99.90;;;;;;5095903;28;20028;-77
2021/01/29 01:31:02;;;;;;;9.65;5.43;;;0.20;99.90;;;;;;5095484;28;20106;-77
2021/01/29 01:33:28;;;;;;;11.75;5.93;;;0.30;99.90;;;;;;5095623;28;20030;-77
2021/01/29 01:35:54;;;;;;;12.57;6.55;;;0.20;99.90;;;;;;5095719;28;20054;-75
2021/01/29 01:38:19;;;;;;;9.95;5.20;;;0.20;99.90;;;;;;5095262;28;20016;-76
2021/01/29 01:40:46;;;;;;;7.82;4.57;;;0.20;99.90;;;;;;5077512;28;20069;-77
2021/01/29 01:43:12;;;;;;;9.57;5.30;;;0.20;99.90;;;;;;5095269;28;20469;-76
2021/01/29 01:45:57;;;;;;;10.32;5.03;;;0.20;99.90;;;;;;5077146;28;20028;-77
2021/01/29 01:48:31;;;;;;;8.27;4.90;;;0.20;99.90;;;;;;5077126;28;20048;-77
2021/01/29 01:50:57;;;;;;;9.57;5.32;;;0.10;99.90;;;;;;5095321;28;20024;-77
2021/01/29 01:53:42;;;;;;;10.20;5.55;;;0.20;99.90;;;;;;5077209;28;20028;-77
2021/01/29 01:56:25;;;;;;;8.73;5.32;;;0.20;99.90;;;;;;5064122;28;20031;-77
2021/01/29 01:58:56;;;;;;;9.02;5.63;;;0.20;99.90;;;;;;5095330;28;20024;-76
2021/01/29 02:01:23;;;;;;;6.85;4.82;;;0.20;99.90;;;;;;5095260;28;20063;-76
2021/01/29 02:03:51;;;;;;;10.15;5.25;;;0.10;99.90;;;;;;5094983;28;20447;-76
2021/01/29 02:06:17;;;;;;;14.38;5.50;;;0.10;99.90;;;;;;5094877;28;20138;-76
2021/01/29 02:08:45;;;;;;;9.13;5.30;;;0.10;99.90;;;;;;5095249;28;20039;-77
2021/01/29 02:11:17;;;;;;;10.20;6.05;;;0.10;99.90;;;;;;5094782;28;20419;-77
2021/01/29 02:13:42;;;;;;;9.40;6.20;;;0.10;99.90;;;;;;5094730;28;20032;-76
2021/01/29 02:16:18;;;;;;;9.57;6.28;;;0.10;99.90;;;;;;5094793;28;20032;-77
2021/01/29 02:19:21;;;;;;;10.32;5.75;;;0.10;99.90;;;;;;5094976;28;20051;-77
2021/01/29 02:22:27;;;;;;;11.48;6.40;;;0.10;99.90;;;;;;5082786;28;20055;-76
2021/01/29 02:25:32;;;;;;;13.75;6.90;;;0.10;99.90;;;;;;5075652;28;20040;-77
2021/01/29 02:28:00;;;;;;;14.15;9.93;;;0.10;99.90;;;;;;5094317;28;20494;-77
2021/01/29 02:30:53;;;;;;;15.68;11.52;;;0.10;99.90;;;;;;5094469;28;20378;-77
2021/01/29 02:33:34;;;;;;;18.80;13.98;;;0.10;99.90;;;;;;5076162;28;20030;-76
2021/01/29 02:36:08;;;;;;;16.42;13.52;;;0.00;99.90;;;;;;5094207;28;20393;-76
2021/01/29 02:39:04;;;;;;;17.10;13.10;;;0.00;99.90;;;;;;5062520;28;20500;-76
2021/01/29 02:41:36;;;;;;;18.40;13.65;;;-0.10;99.90;;;;;;5094341;28;20023;-76
2021/01/29 02:44:14;;;;;;;15.30;10.45;;;-0.10;99.90;;;;;;5094067;28;20085;-76
2021/01/29 02:46:55;;;;;;;14.95;9.45;;;-0.10;99.90;;;;;;5094344;28;20044;-77
2021/01/29 02:49:52;;;;;;;15.40;9.60;;;-0.20;99.90;;;;;;5061884;28;20115;-75
2021/01/29 02:52:30;;;;;;;12.05;8.80;;;-0.20;99.90;;;;;;5074622;28;20052;-75
2021/01/29 02:55:04;;;;;;;13.88;10.57;;;-0.20;99.90;;;;;;5094023;28;20016;-76
2021/01/29 02:57:55;;;;;;;15.43;11.88;;;-0.20;99.90;;;;;;5080167;28;20039;-76
2021/01/29 03:00:35;;;;;;;16.27;11.75;;;-0.20;99.90;;;;;;5082799;28;20066;-76
2021/01/29 03:03:21;;;;;;;16.05;14.13;;;-0.30;99.90;;;;;;5094124;28;20046;-76
2021/01/29 03:06:39;;;;;;;16.05;14.20;;;-0.30;99.90;;;;;;5093893;28;20445;-76
2021/01/29 03:09:15;;;;;;;17.05;15.30;;;-0.30;99.90;;;;;;5067403;28;20393;-76
2021/01/29 03:11:51;;;;;;;15.48;12.48;;;-0.30;99.90;;;;;;5075428;28;20020;-74
2021/01/29 03:14:23;;;;;;;12.98;8.93;;;-0.40;99.90;;;;;;5093951;28;20024;-72
2021/01/29 03:17:12;;;;;;;13.82;11.00;;;-0.40;99.90;;;;;;5093569;28;20020;-72
2021/01/29 03:19:56;;;;;;;15.23;11.82;;;-0.50;99.90;;;;;;5093911;28;20436;-72
2021/01/29 03:22:29;;;;;;;17.35;13.68;;;-0.50;99.90;;;;;;5075361;28;20099;-72
2021/01/29 03:25:03;;;;;;;16.40;12.82;;;-0.50;99.90;;;;;;5093542;28;20020;-73
2021/01/29 03:27:50;;;;;;;14.43;12.50;;;-0.40;99.90;;;;;;5094096;28;20373;-73
2021/01/29 03:30:29;;;;;;;17.98;15.50;;;-0.40;99.90;;;;;;5075377;28;20083;-72
2021/01/29 03:32:58;;;;;;;16.70;14.82;;;-0.40;99.90;;;;;;5072574;28;20363;-72
2021/01/29 03:35:37;;;;;;;17.05;15.35;;;-0.40;99.90;;;;;;5093327;28;20028;-72
2021/01/29 03:38:40;;;;;;;16.00;13.60;;;-0.40;99.90;;;;;;5093205;28;20073;-72
2021/01/29 03:41:23;;;;;;;15.57;13.48;;;-0.50;99.90;;;;;;5080576;28;20050;-72
2021/01/29 03:44:00;;;;;;;15.98;13.63;;;-0.50;99.90;;;;;;5075109;28;20111;-72
2021/01/29 03:46:32;;;;;;;17.92;14.35;;;-0.60;99.90;;;;;;5093205;28;20023;-72
2021/01/29 03:49:15;;;;;;;16.25;14.55;;;-0.60;99.90;;;;;;5093153;28;20046;-72
2021/01/29 03:51:59;;;;;;;16.85;15.15;;;-0.60;99.90;;;;;;5075063;28;20036;-72
2021/01/29 03:54:34;;;;;;;15.30;13.70;;;-0.70;99.90;;;;;;5093146;28;20024;-73
2021/01/29 03:57:14;;;;;;;15.80;14.10;;;-0.70;99.90;;;;;;5075303;28;20496;-72
2021/01/29 03:59:45;;;;;;;14.48;12.70;;;-0.70;99.90;;;;;;5092609;28;20028;-72
2021/01/29 04:02:16;;;;;;;14.90;11.82;;;-0.70;99.90;;;;;;5093365;28;20085;-73
2021/01/29 04:05:00;;;;;;;12.82;9.80;;;-0.70;99.90;;;;;;5075251;28;20077;-72
2021/01/29 04:07:38;;;;;;;11.88;8.98;;;-0.70;99.90;;;;;;5093483;28;20024;-72
2021/01/29 04:10:06;;;;;;;18.48;13.10;;;-0.70;99.90;;;;;;5079499;28;20028;-72
2021/01/29 04:12:43;;;;;;;31.08;19.50;;;-0.80;99.90;;;;;;5092985;28;20039;-72
2021/01/29 04:15:24;;;;;;;37.15;20.35;;;-0.90;99.90;;;;;;5079913;28;20020;-71
2021/01/29 04:18:01;;;;;;;33.72;17.90;;;-0.90;99.90;;;;;;5074450;28;20039;-69
2021/01/29 04:20:58;;;;;;;27.65;13.63;;;-0.90;99.90;;;;;;5093397;28;20052;-73
2021/01/29 04:23:43;;;;;;;36.40;12.95;;;-1.00;99.90;;;;;;5075427;28;20040;-73
2021/01/29 04:26:16;;;;;;;52.78;13.85;;;-0.90;99.90;;;;;;5097144;28;20111;-73
2021/01/29 04:28:45;;;;;;;54.30;13.45;;;-1.00;99.90;;;;;;5078846;28;20020;-72
2021/01/29 04:31:15;;;;;;;45.05;11.25;;;-0.90;99.90;;;;;;5096734;28;20050;-73
2021/01/29 04:33:46;;;;;;;54.72;13.10;;;-0.90;99.90;;;;;;5096455;28;20411;-73
2021/01/29 04:36:15;;;;;;;55.03;12.48;;;-1.00;99.90;;;;;;5096422;28;20062;-73
2021/01/29 04:38:55;;;;;;;39.22;9.85;;;-1.00;99.90;;;;;;5096575;28;20025;-73
2021/01/29 04:41:57;;;;;;;18.52;7.78;;;-0.90;99.90;;;;;;5078237;28;20028;-72
2021/01/29 04:44:49;;;;;;;24.75;10.38;;;-1.00;99.90;;;;;;5078478;28;20495;-73
2021/01/29 04:47:27;;;;;;;25.17;11.43;;;-1.00;99.90;;;;;;5077380;28;20066;-73
2021/01/29 04:50:10;;;;;;;20.20;10.45;;;-1.00;99.90;;;;;;5096074;28;20020;-72
2021/01/29 04:52:56;;;;;;;21.30;9.45;;;-1.10;99.90;;;;;;5083284;28;20113;-73
2021/01/29 04:55:36;;;;;;;12.40;7.38;;;-1.00;99.90;;;;;;5096435;28;20080;-73
2021/01/29 04:58:14;;;;;;;14.55;8.25;;;-1.00;99.90;;;;;;5095836;28;20064;-73
2021/01/29 05:01:09;;;;;;;15.48;8.23;;;-1.00;99.90;;;;;;5096435;28;20020;-72
2021/01/29 05:04:09;;;;;;;12.00;8.30;;;-1.00;99.90;;;;;;5081200;28;20052;-73
2021/01/29 05:06:53;;;;;;;12.52;8.02;;;-1.00;99.90;;;;;;5082139;28;20071;-73
2021/01/29 05:09:37;;;;;;;12.85;7.85;;;-1.00;99.90;;;;;;5095837;28;20035;-72
2021/01/29 05:12:21;;;;;;;31.13;15.02;;;-0.90;99.90;;;;;;5095562;28;20028;-72
2021/01/29 05:15:17;;;;;;;18.20;9.45;;;-0.90;99.90;;;;;;5095702;28;20027;-72
2021/01/29 05:18:10;;;;;;;21.98;10.20;;;-0.90;99.90;;;;;;5092793;28;20531;-73
2021/01/29 05:21:13;;;;;;;31.35;14.85;;;-0.90;99.90;;;;;;5080665;28;20102;-73
2021/01/29 05:24:09;;;;;;;24.15;13.20;;;-1.00;99.90;;;;;;5078960;28;20037;-72
2021/01/29 05:26:47;;;;;;;20.37;9.77;;;-1.00;99.90;;;;;;5073820;28;20046;-73
2021/01/29 05:29:28;;;;;;;17.25;9.07;;;-1.00;99.90;;;;;;5086750;28;20032;-72
2021/01/29 05:32:31;;;;;;;14.32;9.85;;;-1.00;99.90;;;;;;5082712;28;20035;-73
2021/01/29 05:35:23;;;;;;;15.85;9.00;;;-1.00;99.90;;;;;;5098445;28;20539;-73
2021/01/29 05:38:18;;;;;;;15.80;9.68;;;-1.00;99.90;;;;;;5082928;28;20036;-71
2021/01/29 05:41:09;;;;;;;14.88;9.07;;;-1.00;99.90;;;;;;5076159;28;20077;-77
2021/01/29 05:43:59;;;;;;;18.77;9.88;;;-1.00;99.90;;;;;;5065780;28;22051;-77
2021/01/29 05:46:31;;;;;;;16.35;9.60;;;-0.90;99.90;;;;;;5067006;28;20048;-76
2021/01/29 05:49:19;;;;;;;16.83;9.18;;;-1.00;99.90;;;;;;5063592;28;20032;-77
2021/01/29 05:52:21;;;;;;;15.73;9.20;;;-1.00;99.90;;;;;;5080081;28;20025;-77
2021/01/29 05:55:17;;;;;;;16.40;9.10;;;-1.10;99.90;;;;;;5087782;28;20077;-76
2021/01/29 05:58:01;;;;;;;14.70;9.27;;;-1.00;99.90;;;;;;5080540;28;20075;-76
2021/01/29 06:00:48;;;;;;;41.78;18.55;;;-1.00;99.90;;;;;;5073693;28;20028;-77
2021/01/29 06:03:35;;;;;;;74.88;30.05;;;-1.00;99.90;;;;;;5086452;28;20051;-76
2021/01/29 06:06:43;;;;;;;82.93;33.75;;;-0.90;99.90;;;;;;5094476;28;20500;-76
2021/01/29 06:09:20;;;;;;;75.43;31.08;;;-0.50;99.90;;;;;;5090689;28;20028;-76
2021/01/29 06:12:04;;;;;;;73.43;27.83;;;-0.10;99.90;;;;;;5077111;28;20032;-80
2021/01/29 06:14:47;;;;;;;62.60;27.55;;;0.30;99.90;;;;;;5068693;28;20110;-80
2021/01/29 06:17:31;;;;;;;65.93;27.27;;;0.50;99.90;;;;;;5065000;28;20371;-83
2021/01/29 06:20:31;;;;;;;46.90;20.15;;;0.40;99.90;;;;;;5071056;28;20398;-75
2021/01/29 06:23:27;;;;;;;43.20;20.02;;;0.20;99.90;;;;;;5089105;28;20476;-79
2021/01/29 06:26:29;;;;;;;28.60;14.80;;;0.00;99.80;;;;;;5091120;28;20496;-81
2021/01/29 06:29:10;;;;;;;75.90;31.45;;;-0.10;99.90;;;;;;5089561;28;20036;-76
2021/01/29 06:31:54;;;;;;;56.85;22.25;;;-0.30;99.90;;;;;;5087580;28;20422;-87
2021/01/29 06:34:35;;;;;;;62.10;25.58;;;-0.30;99.90;;;;;;5070973;28;20028;-74
2021/01/29 06:37:20;;;;;;;57.20;24.35;;;-0.30;99.90;;;;;;5094651;28;20061;-78
2021/01/29 06:40:03;;;;;;;83.60;33.85;;;-0.30;99.90;;;;;;5074992;28;20036;-77
2021/01/29 06:42:59;;;;;;;57.30;23.67;;;-0.50;99.60;;;;;;5079905;28;20036;-80
2021/01/29 06:45:32;;;;;;;43.22;19.58;;;-0.70;99.90;;;;;;5071219;28;20028;-80
2021/01/29 06:48:30;;;;;;;38.65;18.15;;;-0.80;99.90;;;;;;5075414;28;20051;-80
2021/01/29 06:51:20;;;;;;;42.40;20.50;;;-0.80;99.90;;;;;;5080174;28;20123;-80
2021/01/29 06:54:10;;;;;;;91.40;37.08;;;-0.80;99.90;;;;;;5094647;28;20059;-81
2021/01/29 06:57:06;;;;;;;101.13;41.60;;;-0.80;99.90;;;;;;5093953;28;20092;-81
2021/01/29 06:59:57;;;;;;;84.25;36.03;;;-1.00;99.90;;;;;;5075726;28;20023;-81
2021/01/29 07:02:37;;;;;;;43.20;20.55;;;-0.50;99.90;;;;;;5094170;28;20035;-81
2021/01/29 07:05:24;;;;;;;57.10;25.05;;;0.20;99.90;;;;;;5063259;28;20034;-81
2021/01/29 07:08:34;;;;;;;45.00;20.17;;;1.00;99.90;;;;;;5093647;28;20420;-78
2021/01/29 07:11:28;;;;;;;30.80;15.85;;;1.90;99.90;;;;;;5060096;28;20040;-81
2021/01/29 07:14:04;;;;;;;30.98;16.50;;;2.70;99.90;;;;;;5093559;28;20074;-80
2021/01/29 07:16:53;;;;;;;32.83;18.45;;;3.60;99.90;;;;;;5093358;28;20095;-81
2021/01/29 07:19:28;;;;;;;33.00;17.60;;;4.40;99.90;;;;;;5085410;28;20040;-81
2021/01/29 07:22:42;;;;;;;50.88;23.35;;;5.00;99.90;;;;;;5074704;28;20028;-80
2021/01/29 07:25:59;;;;;;;38.80;19.33;;;4.50;93.80;;;;;;5041794;28;20039;-80
2021/01/29 07:28:40;;;;;;;39.35;21.55;;;3.40;92.10;;;;;;5054004;28;20039;-80
2021/01/29 07:31:15;;;;;;;21.30;13.73;;;2.30;92.60;;;;;;5093623;28;20028;-80
2021/01/29 07:33:47;;;;;;;22.80;11.57;;;1.90;94.20;;;;;;5085540;28;20016;-80
2021/01/29 07:36:25;;;;;;;17.15;10.85;;;1.60;95.70;;;;;;5093131;28;20113;-80
2021/01/29 07:39:21;;;;;;;20.58;12.27;;;1.50;95.90;;;;;;5093057;28;20028;-81
2021/01/29 07:42:05;;;;;;;;;;;1.10;95.90;;;;;;5075466;28;20519;-80
2021/01/29 07:44:46;;;;;;;26.08;14.43;;;0.90;95.50;;;;;;5075090;28;19912;-80
2021/01/29 07:47:21;;;;;;;18.23;9.73;;;0.60;96.10;;;;;;5092886;28;20051;-81
2021/01/29 07:50:15;;;;;;;15.27;9.18;;;0.50;97.20;;;;;;5093514;28;20028;-81
2021/01/29 07:53:13;;;;;;;25.98;11.05;;;0.40;97.40;;;;;;5081155;28;20028;-81
2021/01/29 07:56:03;;;;;;;17.10;9.90;;;0.30;97.40;;;;;;5093152;28;20385;-82
2021/01/29 07:58:37;;;;;;;18.85;10.27;;;0.10;98.10;;;;;;5093419;28;20069;-81
2021/01/29 08:01:23;;;;;;;18.35;10.07;;;0.00;97.80;;;;;;5074939;28;20077;-81
2021/01/29 08:04:15;;;;;;;17.55;9.55;;;0.00;97.80;;;;;;5093091;28;20106;-81
2021/01/29 08:07:01;;;;;;;18.83;11.68;;;-0.20;97.60;;;;;;5067445;28;20502;-81
2021/01/29 08:09:39;;;;;;;20.90;10.50;;;-0.20;98.00;;;;;;5074631;28;20024;-81
2021/01/29 08:12:12;;;;;;;17.33;10.52;;;-0.30;97.80;;;;;;5092641;28;20468;-81
2021/01/29 08:15:11;;;;;;;17.30;10.68;;;-0.30;98.50;;;;;;5074846;28;20113;-78
2021/01/29 08:18:07;;;;;;;21.75;12.00;;;-0.20;98.40;;;;;;5074962;28;20397;-80
2021/01/29 08:20:47;;;;;;;18.27;10.73;;;-0.30;98.10;;;;;;5063842;28;20480;-79
2021/01/29 08:23:19;;;;;;;19.70;10.00;;;-0.30;98.10;;;;;;5092788;28;20477;-79
2021/01/29 08:25:47;;;;;;;20.55;11.60;;;-0.40;98.00;;;;;;5092878;28;20102;-80
2021/01/29 08:28:42;;;;;;;20.85;11.48;;;-0.50;97.70;;;;;;5092354;28;20024;-81
2021/01/29 08:31:51;;;;;;;27.35;12.20;;;-0.50;98.50;;;;;;5092776;28;20027;-80
2021/01/29 08:34:35;;;;;;;20.75;10.88;;;-0.40;99.00;;;;;;5082965;28;20394;-81
2021/01/29 08:37:35;;;;;;;21.92;11.98;;;-0.20;99.40;;;;;;5092478;28;20038;-81
2021/01/29 08:40:22;;;;;;;19.00;9.73;;;-0.10;99.90;;;;;;5092255;28;20437;-81
2021/01/29 08:43:06;;;;;;;19.95;10.50;;;0.10;99.70;;;;;;5074679;28;20466;-81
2021/01/29 08:45:34;;;;;;;24.60;11.32;;;0.20;99.90;;;;;;5075501;28;20055;-80
2021/01/29 08:48:21;;;;;;;22.45;11.80;;;0.20;99.50;;;;;;5092960;28;20055;-81
2021/01/29 08:51:11;;;;;;;28.38;14.85;;;0.20;98.90;;;;;;5078492;28;20432;-81
2021/01/29 08:54:27;;;;;;;25.08;14.38;;;0.20;98.70;;;;;;5092433;28;20078;-81
2021/01/29 08:57:07;;;;;;;21.60;12.17;;;0.20;98.60;;;;;;5049381;28;20063;-79
2021/01/29 08:59:38;;;;;;;23.27;12.45;;;0.10;98.10;;;;;;5092441;28;20149;-81
2021/01/29 09:02:53;;;;;;;28.08;16.23;;;-0.10;97.80;;;;;;5092249;28;20063;-81
2021/01/29 09:05:23;;;;;;;30.85;13.55;;;-0.20;98.50;;;;;;5010566;28;20061;-80
2021/01/29 09:07:57;;;;;;;39.05;20.60;;;-0.20;98.90;;;;;;5085511;28;20098;-80
2021/01/29 09:10:47;;;;;;;30.10;13.65;;;-0.10;99.10;;;;;;5077742;28;20101;-80
2021/01/29 09:13:17;;;;;;;34.67;16.23;;;-0.10;99.00;;;;;;5095772;28;20462;-80
2021/01/29 09:16:01;;;;;;;27.27;13.60;;;0.00;99.00;;;;;;5077983;28;20531;-80
2021/01/29 09:18:38;;;;;;;27.25;14.68;;;0.00;99.00;;;;;;5096081;28;20119;-79
2021/01/29 09:21:20;;;;;;;25.75;13.13;;;0.00;99.00;;;;;;5096092;28;20024;-81
2021/01/29 09:23:46;;;;;;;27.92;14.70;;;0.10;99.20;;;;;;5083316;28;20431;-80
2021/01/29 09:26:30;;;;;;;27.52;14.35;;;0.10;98.70;;;;;;5096071;28;20059;-80
2021/01/29 09:29:11;;;;;;;19.02;10.82;;;0.20;98.60;;;;;;5077636;28;20066;-79
2021/01/29 09:31:39;;;;;;;20.05;10.73;;;0.10;98.30;;;;;;5077480;28;20032;-80
2021/01/29 09:34:14;;;;;;;14.07;8.32;;;0.10;98.10;;;;;;5095563;28;20020;-81
2021/01/29 09:36:48;;;;;;;26.48;14.40;;;0.10;97.60;;;;;;5095384;28;20443;-80
2021/01/29 09:39:26;;;;;;;23.83;11.93;;;0.00;97.50;;;;;;5095546;28;20530;-79
2021/01/29 09:42:09;;;;;;;32.25;16.73;;;-0.10;97.50;;;;;;5077172;28;20024;-81
2021/01/29 09:44:45;;;;;;;31.30;16.50;;;-0.10;98.10;;;;;;5095964;28;20369;-81
2021/01/29 09:47:16;;;;;;;27.40;14.23;;;-0.20;98.00;;;;;;5095387;28;20036;-81
2021/01/29 09:49:43;;;;;;;25.75;14.60;;;-0.20;98.20;;;;;;5095333;28;20494;-80
2021/01/29 09:52:08;;;;;;;22.70;11.82;;;-0.10;98.60;;;;;;5094978;28;20454;-80
2021/01/29 09:54:43;;;;;;;24.05;12.40;;;-0.10;98.30;;;;;;5095552;28;20080;-80
2021/01/29 09:57:23;;;;;;;22.70;10.70;;;-0.20;97.90;;;;;;5095824;28;20185;-80
2021/01/29 10:00:14;;;;;;;28.90;14.02;;;-0.30;97.80;;;;;;5077839;28;20534;-72
2021/01/29 10:03:06;;;;;;;21.00;10.27;;;-0.40;98.00;;;;;;5076953;28;20031;-80
2021/01/29 10:05:45;;;;;;;26.83;14.30;;;-0.40;98.50;;;;;;5095402;28;20016;-80
2021/01/29 10:08:11;;;;;;;25.45;13.20;;;-0.40;98.10;;;;;;5094668;28;20024;-80
2021/01/29 10:10:58;;;;;;;34.03;12.50;;;-0.50;98.00;;;;;;5076654;28;20043;-80
2021/01/29 10:13:26;;;;;;;21.20;11.27;;;-0.60;98.10;;;;;;5076849;28;20031;-80
2021/01/29 10:16:25;;;;;;;24.63;13.93;;;-0.60;98.20;;;;;;5094924;28;20460;-80
2021/01/29 10:19:04;;;;;;;26.30;14.07;;;-0.70;98.50;;;;;;5093574;28;20020;-80
2021/01/29 10:21:47;;;;;;;19.92;11.65;;;-0.60;98.60;;;;;;5094777;28;20024;-80
2021/01/29 10:24:22;;;;;;;20.65;12.73;;;-0.60;98.40;;;;;;5094542;28;20028;-81
2021/01/29 10:26:55;;;;;;;20.45;11.82;;;-0.70;98.30;;;;;;5076312;28;20024;-80
2021/01/29 10:29:23;;;;;;;20.63;13.07;;;-0.70;98.20;;;;;;5094106;28;20025;-80
2021/01/29 10:31:52;;;;;;;25.80;14.10;;;-0.70;98.40;;;;;;5076365;28;20477;-79
2021/01/29 10:34:38;;;;;;;20.77;12.38;;;-0.80;98.30;;;;;;5076879;28;20032;-80
2021/01/29 10:37:24;;;;;;;26.17;13.37;;;-0.80;98.40;;;;;;5094293;28;20028;-79
2021/01/29 10:39:59;;;;;;;27.65;13.57;;;-0.80;98.30;;;;;;5093879;28;20478;-74
2021/01/29 10:42:34;;;;;;;27.58;12.82;;;-0.90;98.40;;;;;;5081222;28;20535;-80
2021/01/29 10:45:00;;;;;;;24.30;13.75;;;-0.90;98.50;;;;;;5094291;28;20024;-80
2021/01/29 10:47:34;;;;;;;22.42;14.73;;;-0.90;98.20;;;;;;5075941;28;20040;-80
2021/01/29 10:50:12;;;;;;;18.35;11.63;;;-0.90;98.50;;;;;;5093927;28;20016;-80
2021/01/29 10:52:46;;;;;;;21.30;12.98;;;-1.00;98.40;;;;;;5081328;28;20028;-80
2021/01/29 10:55:26;;;;;;;21.17;11.50;;;-1.00;98.50;;;;;;5075945;28;20118;-79
2021/01/29 10:58:30;;;;;;;23.15;10.55;;;-1.00;98.70;;;;;;5093546;28;20064;-80
2021/01/29 11:01:01;;;;;;;28.85;15.70;;;-0.90;98.90;;;;;;5021935;28;20169;-80
2021/01/29 11:03:55;;;;;;;31.45;16.75;;;-0.90;98.90;;;;;;5094312;28;20103;-80
2021/01/29 11:06:27;;;;;;;29.05;14.48;;;-0.90;99.30;;;;;;5093878;28;20063;-80
2021/01/29 11:08:58;;;;;;;34.35;17.63;;;-0.80;99.40;;;;;;5075976;28;20102;-80
2021/01/29 11:11:31;;;;;;;21.70;12.25;;;-0.80;99.60;;;;;;5075588;28;20093;-80
2021/01/29 11:14:22;;;;;;;27.83;13.98;;;-0.70;99.80;;;;;;5075566;28;20115;-80
2021/01/29 11:17:13;;;;;;;22.33;11.07;;;-0.70;99.60;;;;;;5061811;28;20089;-80
2021/01/29 11:19:45;;;;;;;26.90;14.05;;;-0.60;99.70;;;;;;5093490;28;20028;-79
2021/01/29 11:22:26;;;;;;;22.80;12.88;;;-0.60;99.70;;;;;;5075527;28;20510;-79
2021/01/29 11:24:58;;;;;;;36.38;13.30;;;-0.60;99.40;;;;;;5075768;28;20097;-79
2021/01/29 11:27:44;;;;;;;22.77;10.65;;;-0.60;99.40;;;;;;5093683;28;20035;-80
2021/01/29 11:30:10;;;;;;;;;;;-0.70;99.40;;;;;;5093422;28;20149;-80
2021/01/29 11:32:42;;;;;;;33.05;14.90;;;-0.70;99.30;;;;;;5093557;28;20049;-80
2021/01/29 11:35:36;;;;;;;39.45;18.38;;;-0.70;99.50;;;;;;5093259;28;20035;-79
2021/01/29 11:38:11;;;;;;;42.95;18.17;;;-0.80;99.80;;;;;;5092920;28;20077;-79
2021/01/29 11:41:10;;;;;;;59.33;25.80;;;-0.70;99.90;;;;;;5094300;28;20103;-79
2021/01/29 11:43:56;;;;;;;44.53;21.30;;;-0.70;99.90;;;;;;5051855;28;20040;-80
2021/01/29 11:46:22;;;;;;;;;;;-0.60;99.90;;;;;;5093687;28;20032;-79
2021/01/29 11:48:53;;;;;;;;;;;-0.60;99.80;;;;;;5075656;28;20342;-79
2021/01/29 11:51:31;;;;;;;43.80;17.70;;;-0.70;99.80;;;;;;5093497;28;19911;-79
2021/01/29 11:53:56;;;;;;;60.03;23.75;;;-0.70;99.90;;;;;;5075011;28;20440;-79
2021/01/29 11:56:38;;;;;;;62.53;26.75;;;-0.70;99.80;;;;;;5075035;28;20119;-79
2021/01/29 11:59:21;;;;;;;52.10;22.80;;;-0.80;99.90;;;;;;5092784;28;20081;-79
2021/01/29 12:02:05;;;;;;;46.70;20.98;;;-0.80;99.90;;;;;;5093425;28;20024;-79
2021/01/29 12:04:39;;;;;;;43.58;20.80;;;-0.70;99.90;;;;;;5074980;28;20497;-79
2021/01/29 12:07:08;;;;;;;43.55;18.50;;;-0.70;99.90;;;;;;5075323;28;20052;-80
2021/01/29 12:10:01;;;;;;;54.92;23.27;;;-0.70;99.90;;;;;;5092847;28;20032;-79
2021/01/29 12:12:41;;;;;;;52.70;22.58;;;-0.70;99.90;;;;;;5092899;28;20028;-79
2021/01/29 12:15:20;;;;;;;56.03;23.33;;;-0.80;99.90;;;;;;5093396;28;20027;-80
2021/01/29 12:17:57;;;;;;;44.53;20.73;;;-0.70;99.90;;;;;;5074547;28;20036;-78
2021/01/29 12:20:33;;;;;;;28.50;14.75;;;-0.70;99.90;;;;;;5075330;28;20028;-79
2021/01/29 12:23:40;;;;;;;39.85;20.75;;;-0.70;99.90;;;;;;5092944;28;20039;-79
2021/01/29 12:26:33;;;;;;;50.20;25.13;;;-0.60;99.90;;;;;;5074394;28;20024;-79
2021/01/29 12:29:31;;;;;;;43.58;21.25;;;-0.60;99.90;;;;;;5074907;28;20070;-78
2021/01/29 12:32:00;;;;;;;56.83;24.27;;;-0.50;99.90;;;;;;5074161;28;20024;-79
2021/01/29 12:34:36;;;;;;;50.25;22.92;;;-0.50;99.90;;;;;;5092576;28;20020;-79
2021/01/29 12:37:05;;;;;;;51.40;21.48;;;-0.40;99.90;;;;;;5092751;28;20036;-78
2021/01/29 12:39:43;;;;;;;41.05;17.77;;;-0.40;99.90;;;;;;5093233;28;20420;-81
2021/01/29 12:42:20;;;;;;;41.25;17.88;;;-0.30;99.90;;;;;;5075835;28;20085;-79
2021/01/29 12:45:05;;;;;;;45.70;20.80;;;-0.30;99.90;;;;;;5078251;28;20027;-78
2021/01/29 12:47:54;;;;;;;35.88;17.38;;;-0.30;99.90;;;;;;5083685;28;20048;-78
2021/01/29 12:50:38;;;;;;;68.55;28.88;;;-0.30;99.90;;;;;;5078371;28;20055;-79
2021/01/29 12:53:15;;;;;;;49.92;22.35;;;-0.30;99.90;;;;;;5096297;28;20031;-78
2021/01/29 12:56:05;;;;;;;49.08;20.42;;;-0.30;99.90;;;;;;5096449;28;20097;-79
2021/01/29 12:58:42;;;;;;;80.72;32.92;;;-0.40;99.90;;;;;;5096140;28;20449;-78
2021/01/29 13:01:13;;;;;;;68.97;28.65;;;-0.40;99.90;;;;;;5096361;28;20027;-79
2021/01/29 13:03:56;;;;;;;75.78;31.10;;;-0.40;99.90;;;;;;5096198;28;20376;-78
2021/01/29 13:06:48;;;;;;;92.10;35.03;;;-0.40;99.90;;;;;;5095977;28;20500;-78
2021/01/29 13:09:48;;;;;;;100.40;39.28;;;-0.50;99.90;;;;;;5096273;28;20389;-79
2021/01/29 13:12:43;;;;;;;90.35;35.28;;;-0.40;99.90;;;;;;5078002;28;20028;-79
2021/01/29 13:15:31;;;;;;;83.15;31.48;;;-0.50;99.90;;;;;;5078334;28;20038;-78
2021/01/29 13:18:22;;;;;;;114.05;41.53;;;-0.50;99.90;;;;;;5091211;28;20028;-78
2021/01/29 13:20:55;;;;;;;104.35;39.30;;;-0.60;99.90;;;;;;5078118;28;20081;-78
2021/01/29 13:23:33;;;;;;;108.88;36.25;;;-0.60;99.90;;;;;;5077537;28;20445;-78
2021/01/29 13:26:21;;;;;;;101.25;37.13;;;-0.60;99.90;;;;;;5077425;28;20024;-77
2021/01/29 13:29:20;;;;;;;85.45;30.88;;;-0.60;99.90;;;;;;5069396;28;20489;-78
2021/01/29 13:31:46;;;;;;;91.47;39.20;;;-0.50;99.90;;;;;;5070208;28;20024;-79
2021/01/29 13:34:23;;;;;;;95.82;39.05;;;-0.50;99.90;;;;;;5095435;28;20110;-79
2021/01/29 13:37:05;;;;;;;89.88;33.97;;;-0.60;99.90;;;;;;5077188;28;20059;-78
2021/01/29 13:39:34;;;;;;;104.50;39.20;;;-0.60;99.90;;;;;;5077818;28;20027;-79
2021/01/29 13:42:18;;;;;;;101.38;40.53;;;-0.50;99.90;;;;;;5095030;28;20466;-78